sensor_id;sensor_type;location;lat;lon;timestamp;temperature;humidity
54431;DHT22;40342;52.998;5.862;2024-01-30T00:01:38;5.70;99.90
54431;DHT22;40342;52.998;5.862;2024-01-30T00:04:04;5.70;99.90
54431;DHT22;40342;52.998;5.862;2024-01-30T00:06:29;5.70;99.90
54431;DHT22;40342;52.998;5.862;2024-01-30T00:08:55;5.60;99.90
54431;DHT22;40342;52.998;5.862;2024-01-30T00:11:21;5.60;99.90
54431;DHT22;40342;52.998;5.862;2024-01-30T00:13:47;5.60;99.90
54431;DHT22;40342;52.998;5.862;2024-01-30T00:16:25;5.60;99.90
54431;DHT22;40342;52.998;5.862;2024-01-30T00:18:54;5.60;99.90
54431;DHT22;40342;52.998;5.862;2024-01-30T00:21:20;5.60;99.90
54431;DHT22;40342;52.998;5.862;2024-01-30T00:23:46;5.60;99.90
54431;DHT22;40342;52.998;5.862;2024-01-30T00:26:12;5.60;99.90
54431;DHT22;40342;52.998;5.862;2024-01-30T00:28:40;5.60;99.90
54431;DHT22;40342;52.998;5.862;2024-01-30T00:31:06;5.60;99.90
54431;DHT22;40342;52.998;5.862;2024-01-30T00:33:31;5.60;99.90
54431;DHT22;40342;52.998;5.862;2024-01-30T00:35:57;5.60;99.90
54431;DHT22;40342;52.998;5.862;2024-01-30T00:38:23;5.60;99.90
54431;DHT22;40342;52.998;5.862;2024-01-30T00:40:49;5.60;99.90
54431;DHT22;40342;52.998;5.862;2024-01-30T00:43:15;5.60;99.90
54431;DHT22;40342;52.998;5.862;2024-01-30T00:45:41;5.60;99.90
54431;DHT22;40342;52.998;5.862;2024-01-30T00:48:07;5.60;99.90
54431;DHT22;40342;52.998;5.862;2024-01-30T00:50:32;5.60;99.90
54431;DHT22;40342;52.998;5.862;2024-01-30T00:52:58;5.70;99.90
54431;DHT22;40342;52.998;5.862;2024-01-30T00:55:23;5.70;99.90
54431;DHT22;40342;52.998;5.862;2024-01-30T00:57:49;5.70;99.90
54431;DHT22;40342;52.998;5.862;2024-01-30T01:00:15;5.70;99.90
54431;DHT22;40342;52.998;5.862;2024-01-30T01:02:42;5.60;99.90
54431;DHT22;40342;52.998;5.862;2024-01-30T01:05:08;5.60;99.90
54431;DHT22;40342;52.998;5.862;2024-01-30T01:07:34;5.60;99.90
54431;DHT22;40342;52.998;5.862;2024-01-30T01:10:00;5.60;99.90
54431;DHT22;40342;52.998;5.862;2024-01-30T01:12:26;5.60;99.90
54431;DHT22;40342;52.998;5.862;2024-01-30T01:14:51;5.70;99.90
54431;DHT22;40342;52.998;5.862;2024-01-30T01:17:17;5.70;99.90
54431;DHT22;40342;52.998;5.862;2024-01-30T01:19:44;5.70;99.90
54431;DHT22;40342;52.998;5.862;2024-01-30T01:22:09;5.70;99.90
54431;DHT22;40342;52.998;5.862;2024-01-30T01:24:35;5.70;99.90
54431;DHT22;40342;52.998;5.862;2024-01-30T01:27:01;5.70;99.90
54431;DHT22;40342;52.998;5.862;2024-01-30T01:29:27;5.70;99.90
54431;DHT22;40342;52.998;5.862;2024-01-30T01:32:00;5.70;99.90
54431;DHT22;40342;52.998;5.862;2024-01-30T01:34:25;5.70;99.90
54431;DHT22;40342;52.998;5.862;2024-01-30T01:36:51;5.70;99.90
54431;DHT22;40342;52.998;5.862;2024-01-30T01:39:17;5.60;99.90
54431;DHT22;40342;52.998;5.862;2024-01-30T01:41:43;5.60;99.90
54431;DHT22;40342;52.998;5.862;2024-01-30T01:44:09;5.70;99.90
54431;DHT22;40342;52.998;5.862;2024-01-30T01:46:35;5.70;99.90
54431;DHT22;40342;52.998;5.862;2024-01-30T01:49:02;5.70;99.90
54431;DHT22;40342;52.998;5.862;2024-01-30T01:51:31;5.80;99.90
54431;DHT22;40342;52.998;5.862;2024-01-30T01:54:00;5.80;99.90
54431;DHT22;40342;52.998;5.862;2024-01-30T01:56:27;5.80;99.90
54431;DHT22;40342;52.998;5.862;2024-01-30T01:58:55;5.90;99.90
54431;DHT22;40342;52.998;5.862;2024-01-30T02:01:21;5.90;99.90
54431;DHT22;40342;52.998;5.862;2024-01-30T02:03:48;5.90;99.90
54431;DHT22;40342;52.998;5.862;2024-01-30T02:06:14;5.90;99.90
54431;DHT22;40342;52.998;5.862;2024-01-30T02:08:42;5.90;99.90
54431;DHT22;40342;52.998;5.862;2024-01-30T02:11:07;5.90;99.90
54431;DHT22;40342;52.998;5.862;2024-01-30T02:13:33;5.90;99.90
54431;DHT22;40342;52.998;5.862;2024-01-30T02:16:00;5.80;99.90
54431;DHT22;40342;52.998;5.862;2024-01-30T02:18:26;5.80;99.90
54431;DHT22;40342;52.998;5.862;2024-01-30T02:20:54;5.80;99.90
54431;DHT22;40342;52.998;5.862;2024-01-30T02:23:23;5.80;99.90
54431;DHT22;40342;52.998;5.862;2024-01-30T02:25:49;5.70;99.90
54431;DHT22;40342;52.998;5.862;2024-01-30T02:28:15;5.70;99.90
54431;DHT22;40342;52.998;5.862;2024-01-30T02:30:43;5.70;99.90
54431;DHT22;40342;52.998;5.862;2024-01-30T02:33:08;5.70;99.90
54431;DHT22;40342;52.998;5.862;2024-01-30T02:35:34;5.70;99.90
54431;DHT22;40342;52.998;5.862;2024-01-30T02:38:00;5.70;99.90
54431;DHT22;40342;52.998;5.862;2024-01-30T02:40:26;5.70;99.90
54431;DHT22;40342;52.998;5.862;2024-01-30T02:42:52;5.70;99.90
54431;DHT22;40342;52.998;5.862;2024-01-30T02:45:17;5.70;99.90
54431;DHT22;40342;52.998;5.862;2024-01-30T02:47:43;5.60;99.90
54431;DHT22;40342;52.998;5.862;2024-01-30T02:50:09;5.60;99.90
54431;DHT22;40342;52.998;5.862;2024-01-30T02:52:35;5.60;99.90
54431;DHT22;40342;52.998;5.862;2024-01-30T02:55:01;5.60;99.90
54431;DHT22;40342;52.998;5.862;2024-01-30T02:57:28;5.60;99.90
54431;DHT22;40342;52.998;5.862;2024-01-30T02:59:53;5.50;99.90
54431;DHT22;40342;52.998;5.862;2024-01-30T03:02:19;5.50;99.90
54431;DHT22;40342;52.998;5.862;2024-01-30T03:04:45;5.50;99.90
54431;DHT22;40342;52.998;5.862;2024-01-30T03:07:11;5.50;99.90
54431;DHT22;40342;52.998;5.862;2024-01-30T03:09:37;5.50;99.90
54431;DHT22;40342;52.998;5.862;2024-01-30T03:12:04;5.50;99.90
54431;DHT22;40342;52.998;5.862;2024-01-30T03:14:32;5.50;99.90
54431;DHT22;40342;52.998;5.862;2024-01-30T03:16:58;5.60;99.90
54431;DHT22;40342;52.998;5.862;2024-01-30T03:19:24;5.60;99.90
54431;DHT22;40342;52.998;5.862;2024-01-30T03:21:50;5.70;99.90
54431;DHT22;40342;52.998;5.862;2024-01-30T03:24:16;5.70;99.90
54431;DHT22;40342;52.998;5.862;2024-01-30T03:26:41;5.80;99.90
54431;DHT22;40342;52.998;5.862;2024-01-30T03:29:07;5.70;99.90
54431;DHT22;40342;52.998;5.862;2024-01-30T03:31:33;5.80;99.90
54431;DHT22;40342;52.998;5.862;2024-01-30T03:33:58;5.80;99.90
54431;DHT22;40342;52.998;5.862;2024-01-30T03:36:24;5.90;99.90
54431;DHT22;40342;52.998;5.862;2024-01-30T03:38:49;5.90;99.90
54431;DHT22;40342;52.998;5.862;2024-01-30T03:41:15;5.90;99.90
54431;DHT22;40342;52.998;5.862;2024-01-30T03:43:41;5.80;99.90
54431;DHT22;40342;52.998;5.862;2024-01-30T03:46:07;5.80;99.90
54431;DHT22;40342;52.998;5.862;2024-01-30T03:48:32;5.80;99.90
54431;DHT22;40342;52.998;5.862;2024-01-30T03:50:58;5.90;99.90
54431;DHT22;40342;52.998;5.862;2024-01-30T03:53:24;5.90;99.90
54431;DHT22;40342;52.998;5.862;2024-01-30T03:55:49;5.90;99.90
54431;DHT22;40342;52.998;5.862;2024-01-30T03:58:15;6.00;99.90
54431;DHT22;40342;52.998;5.862;2024-01-30T04:00:41;6.00;99.90
54431;DHT22;40342;52.998;5.862;2024-01-30T04:03:06;6.00;99.90
54431;DHT22;40342;52.998;5.862;2024-01-30T04:05:32;6.00;99.90
54431;DHT22;40342;52.998;5.862;2024-01-30T04:07:58;6.00;99.90
54431;DHT22;40342;52.998;5.862;2024-01-30T04:10:24;6.10;99.90
54431;DHT22;40342;52.998;5.862;2024-01-30T04:12:50;6.10;99.90
54431;DHT22;40342;52.998;5.862;2024-01-30T04:15:17;6.10;99.90
54431;DHT22;40342;52.998;5.862;2024-01-30T04:17:44;6.10;99.90
54431;DHT22;40342;52.998;5.862;2024-01-30T04:20:15;6.10;99.90
54431;DHT22;40342;52.998;5.862;2024-01-30T04:22:43;6.10;99.90
54431;DHT22;40342;52.998;5.862;2024-01-30T04:25:09;6.20;99.90
54431;DHT22;40342;52.998;5.862;2024-01-30T04:27:35;6.20;99.90
54431;DHT22;40342;52.998;5.862;2024-01-30T04:30:00;6.20;99.90
54431;DHT22;40342;52.998;5.862;2024-01-30T04:32:26;6.20;99.90
54431;DHT22;40342;52.998;5.862;2024-01-30T04:34:51;6.10;99.90
54431;DHT22;40342;52.998;5.862;2024-01-30T04:37:17;6.20;99.90
54431;DHT22;40342;52.998;5.862;2024-01-30T04:39:42;6.20;99.90
54431;DHT22;40342;52.998;5.862;2024-01-30T04:42:08;6.20;99.90
54431;DHT22;40342;52.998;5.862;2024-01-30T04:44:34;6.20;99.90
54431;DHT22;40342;52.998;5.862;2024-01-30T04:46:59;6.20;99.90
54431;DHT22;40342;52.998;5.862;2024-01-30T04:49:27;6.60;99.90
54431;DHT22;40342;52.998;5.862;2024-01-30T04:51:53;6.30;99.90
54431;DHT22;40342;52.998;5.862;2024-01-30T04:54:18;6.30;99.90
54431;DHT22;40342;52.998;5.862;2024-01-30T04:56:44;6.30;99.90
54431;DHT22;40342;52.998;5.862;2024-01-30T04:59:09;6.30;99.90
54431;DHT22;40342;52.998;5.862;2024-01-30T05:01:35;6.30;99.90
54431;DHT22;40342;52.998;5.862;2024-01-30T05:04:01;6.30;99.90
54431;DHT22;40342;52.998;5.862;2024-01-30T05:06:27;6.30;99.90
54431;DHT22;40342;52.998;5.862;2024-01-30T05:08:53;6.30;99.90
54431;DHT22;40342;52.998;5.862;2024-01-30T05:11:19;6.30;99.90
54431;DHT22;40342;52.998;5.862;2024-01-30T05:13:45;6.30;99.90
54431;DHT22;40342;52.998;5.862;2024-01-30T05:16:10;6.40;99.90
54431;DHT22;40342;52.998;5.862;2024-01-30T05:18:36;6.50;99.90
54431;DHT22;40342;52.998;5.862;2024-01-30T05:21:02;6.40;99.90
54431;DHT22;40342;52.998;5.862;2024-01-30T05:23:29;6.40;99.90
54431;DHT22;40342;52.998;5.862;2024-01-30T05:25:54;6.40;99.90
54431;DHT22;40342;52.998;5.862;2024-01-30T05:28:20;6.40;99.90
54431;DHT22;40342;52.998;5.862;2024-01-30T05:30:46;6.40;99.90
54431;DHT22;40342;52.998;5.862;2024-01-30T05:33:11;6.40;99.90
54431;DHT22;40342;52.998;5.862;2024-01-30T05:35:38;6.50;99.90
54431;DHT22;40342;52.998;5.862;2024-01-30T05:38:04;6.50;99.90
54431;DHT22;40342;52.998;5.862;2024-01-30T05:40:33;6.40;99.90
54431;DHT22;40342;52.998;5.862;2024-01-30T05:42:58;6.50;99.90
54431;DHT22;40342;52.998;5.862;2024-01-30T05:45:26;6.50;99.90
54431;DHT22;40342;52.998;5.862;2024-01-30T05:47:52;6.50;99.90
54431;DHT22;40342;52.998;5.862;2024-01-30T05:50:19;6.50;99.90
54431;DHT22;40342;52.998;5.862;2024-01-30T05:52:45;6.50;99.90
54431;DHT22;40342;52.998;5.862;2024-01-30T05:55:11;6.50;99.90
54431;DHT22;40342;52.998;5.862;2024-01-30T05:57:37;6.50;99.90
54431;DHT22;40342;52.998;5.862;2024-01-30T06:00:04;6.60;99.90
54431;DHT22;40342;52.998;5.862;2024-01-30T06:02:32;6.60;99.90
54431;DHT22;40342;52.998;5.862;2024-01-30T06:04:58;6.60;99.90
54431;DHT22;40342;52.998;5.862;2024-01-30T06:07:24;6.60;99.90
54431;DHT22;40342;52.998;5.862;2024-01-30T06:09:49;6.60;99.90
54431;DHT22;40342;52.998;5.862;2024-01-30T06:12:15;6.60;99.90
54431;DHT22;40342;52.998;5.862;2024-01-30T06:14:41;6.70;99.90
54431;DHT22;40342;52.998;5.862;2024-01-30T06:17:08;6.70;99.90
54431;DHT22;40342;52.998;5.862;2024-01-30T06:19:34;6.70;99.90
54431;DHT22;40342;52.998;5.862;2024-01-30T06:21:59;6.70;99.90
54431;DHT22;40342;52.998;5.862;2024-01-30T06:24:25;6.70;99.90
54431;DHT22;40342;52.998;5.862;2024-01-30T06:26:51;6.70;99.90
54431;DHT22;40342;52.998;5.862;2024-01-30T06:29:16;6.70;99.90
54431;DHT22;40342;52.998;5.862;2024-01-30T06:31:42;6.70;99.90
54431;DHT22;40342;52.998;5.862;2024-01-30T06:34:11;6.70;99.90
54431;DHT22;40342;52.998;5.862;2024-01-30T06:36:37;6.80;99.90
54431;DHT22;40342;52.998;5.862;2024-01-30T06:39:03;6.80;99.90
54431;DHT22;40342;52.998;5.862;2024-01-30T06:41:29;6.80;99.90
54431;DHT22;40342;52.998;5.862;2024-01-30T06:43:55;6.80;99.90
54431;DHT22;40342;52.998;5.862;2024-01-30T06:46:21;6.80;99.90
54431;DHT22;40342;52.998;5.862;2024-01-30T06:48:46;6.80;99.90
54431;DHT22;40342;52.998;5.862;2024-01-30T06:51:12;6.80;99.90
54431;DHT22;40342;52.998;5.862;2024-01-30T06:53:38;6.90;99.90
54431;DHT22;40342;52.998;5.862;2024-01-30T06:56:04;6.90;99.90
54431;DHT22;40342;52.998;5.862;2024-01-30T06:58:30;6.90;99.90
54431;DHT22;40342;52.998;5.862;2024-01-30T07:00:56;6.90;99.90
54431;DHT22;40342;52.998;5.862;2024-01-30T07:03:22;7.00;99.90
54431;DHT22;40342;52.998;5.862;2024-01-30T07:05:48;7.00;99.90
54431;DHT22;40342;52.998;5.862;2024-01-30T07:08:15;7.00;99.90
54431;DHT22;40342;52.998;5.862;2024-01-30T07:10:43;7.00;99.90
54431;DHT22;40342;52.998;5.862;2024-01-30T07:13:09;7.00;99.90
54431;DHT22;40342;52.998;5.862;2024-01-30T07:15:35;7.00;99.90
54431;DHT22;40342;52.998;5.862;2024-01-30T07:18:02;7.10;99.90
54431;DHT22;40342;52.998;5.862;2024-01-30T07:20:28;7.10;99.90
54431;DHT22;40342;52.998;5.862;2024-01-30T07:22:56;7.10;99.90
54431;DHT22;40342;52.998;5.862;2024-01-30T07:25:21;7.20;99.90
54431;DHT22;40342;52.998;5.862;2024-01-30T07:27:52;7.10;99.90
54431;DHT22;40342;52.998;5.862;2024-01-30T07:30:18;7.10;99.90
54431;DHT22;40342;52.998;5.862;2024-01-30T07:32:44;7.20;99.90
54431;DHT22;40342;52.998;5.862;2024-01-30T07:35:09;7.10;99.90
54431;DHT22;40342;52.998;5.862;2024-01-30T07:37:35;7.20;99.90
54431;DHT22;40342;52.998;5.862;2024-01-30T07:40:01;7.20;99.90
54431;DHT22;40342;52.998;5.862;2024-01-30T07:42:28;7.20;99.90
54431;DHT22;40342;52.998;5.862;2024-01-30T07:44:53;7.20;99.90
54431;DHT22;40342;52.998;5.862;2024-01-30T07:47:19;7.20;99.90
54431;DHT22;40342;52.998;5.862;2024-01-30T07:49:45;7.20;99.90
54431;DHT22;40342;52.998;5.862;2024-01-30T07:52:10;7.20;99.90
54431;DHT22;40342;52.998;5.862;2024-01-30T07:54:48;7.20;99.90
54431;DHT22;40342;52.998;5.862;2024-01-30T07:57:14;7.20;99.90
54431;DHT22;40342;52.998;5.862;2024-01-30T07:59:45;7.20;99.90
54431;DHT22;40342;52.998;5.862;2024-01-30T08:02:12;7.20;99.90
54431;DHT22;40342;52.998;5.862;2024-01-30T08:04:38;7.20;99.90
54431;DHT22;40342;52.998;5.862;2024-01-30T08:07:04;7.10;99.90
54431;DHT22;40342;52.998;5.862;2024-01-30T08:09:30;7.20;99.90
54431;DHT22;40342;52.998;5.862;2024-01-30T08:11:55;7.20;99.90
54431;DHT22;40342;52.998;5.862;2024-01-30T08:14:21;7.20;99.90
54431;DHT22;40342;52.998;5.862;2024-01-30T08:16:46;7.20;99.90
54431;DHT22;40342;52.998;5.862;2024-01-30T08:19:12;7.20;99.90
54431;DHT22;40342;52.998;5.862;2024-01-30T08:21:38;7.20;99.90
54431;DHT22;40342;52.998;5.862;2024-01-30T08:24:04;7.20;99.90
54431;DHT22;40342;52.998;5.862;2024-01-30T08:26:33;7.30;99.90
54431;DHT22;40342;52.998;5.862;2024-01-30T08:28:59;7.30;99.90
54431;DHT22;40342;52.998;5.862;2024-01-30T08:31:25;7.30;99.90
54431;DHT22;40342;52.998;5.862;2024-01-30T08:33:51;7.40;99.90
54431;DHT22;40342;52.998;5.862;2024-01-30T08:36:17;7.40;99.90
54431;DHT22;40342;52.998;5.862;2024-01-30T08:38:42;7.40;99.90
54431;DHT22;40342;52.998;5.862;2024-01-30T08:41:08;7.50;99.90
54431;DHT22;40342;52.998;5.862;2024-01-30T08:43:34;7.50;99.90
54431;DHT22;40342;52.998;5.862;2024-01-30T08:46:00;7.60;99.90
54431;DHT22;40342;52.998;5.862;2024-01-30T08:48:26;7.60;99.90
54431;DHT22;40342;52.998;5.862;2024-01-30T08:50:52;7.60;99.90
54431;DHT22;40342;52.998;5.862;2024-01-30T08:53:18;7.70;99.90
54431;DHT22;40342;52.998;5.862;2024-01-30T08:55:44;7.70;99.90
54431;DHT22;40342;52.998;5.862;2024-01-30T08:58:10;7.80;99.90
54431;DHT22;40342;52.998;5.862;2024-01-30T09:00:36;7.80;99.90
54431;DHT22;40342;52.998;5.862;2024-01-30T09:03:02;7.80;99.90
54431;DHT22;40342;52.998;5.862;2024-01-30T09:05:27;7.90;99.90
54431;DHT22;40342;52.998;5.862;2024-01-30T09:07:53;8.00;99.90
54431;DHT22;40342;52.998;5.862;2024-01-30T09:10:19;8.10;99.90
54431;DHT22;40342;52.998;5.862;2024-01-30T09:12:44;8.10;99.90
54431;DHT22;40342;52.998;5.862;2024-01-30T09:15:10;8.10;99.90
54431;DHT22;40342;52.998;5.862;2024-01-30T09:17:36;8.20;99.90
54431;DHT22;40342;52.998;5.862;2024-01-30T09:20:01;8.40;99.90
54431;DHT22;40342;52.998;5.862;2024-01-30T09:22:27;8.50;99.90
54431;DHT22;40342;52.998;5.862;2024-01-30T09:24:53;8.70;99.90
54431;DHT22;40342;52.998;5.862;2024-01-30T09:27:18;9.00;99.90
54431;DHT22;40342;52.998;5.862;2024-01-30T09:29:44;9.20;99.90
54431;DHT22;40342;52.998;5.862;2024-01-30T09:32:09;9.30;99.90
54431;DHT22;40342;52.998;5.862;2024-01-30T09:34:35;9.50;99.90
54431;DHT22;40342;52.998;5.862;2024-01-30T09:37:01;9.50;99.90
54431;DHT22;40342;52.998;5.862;2024-01-30T09:39:26;9.60;99.90
54431;DHT22;40342;52.998;5.862;2024-01-30T09:42:34;9.60;99.90
54431;DHT22;40342;52.998;5.862;2024-01-30T09:45:02;9.70;99.90
54431;DHT22;40342;52.998;5.862;2024-01-30T09:47:40;9.70;99.90
54431;DHT22;40342;52.998;5.862;2024-01-30T09:50:10;9.80;99.90
54431;DHT22;40342;52.998;5.862;2024-01-30T09:52:36;9.80;99.90
54431;DHT22;40342;52.998;5.862;2024-01-30T09:55:03;9.80;99.90
54431;DHT22;40342;52.998;5.862;2024-01-30T09:57:28;9.90;99.90
54431;DHT22;40342;52.998;5.862;2024-01-30T09:59:54;9.80;99.90
54431;DHT22;40342;52.998;5.862;2024-01-30T10:02:21;9.90;99.90
54431;DHT22;40342;52.998;5.862;2024-01-30T10:04:50;9.90;99.90
54431;DHT22;40342;52.998;5.862;2024-01-30T10:07:17;9.90;99.90
54431;DHT22;40342;52.998;5.862;2024-01-30T10:09:43;9.90;99.90
54431;DHT22;40342;52.998;5.862;2024-01-30T10:12:12;9.80;99.90
54431;DHT22;40342;52.998;5.862;2024-01-30T10:14:39;9.90;99.90
54431;DHT22;40342;52.998;5.862;2024-01-30T10:17:06;9.80;99.90
54431;DHT22;40342;52.998;5.862;2024-01-30T10:19:32;9.80;99.90
54431;DHT22;40342;52.998;5.862;2024-01-30T10:22:00;9.70;99.90
54431;DHT22;40342;52.998;5.862;2024-01-30T10:24:26;9.60;99.90
54431;DHT22;40342;52.998;5.862;2024-01-30T10:26:53;9.60;99.90
54431;DHT22;40342;52.998;5.862;2024-01-30T10:29:18;9.50;99.90
54431;DHT22;40342;52.998;5.862;2024-01-30T10:31:44;9.40;99.90
54431;DHT22;40342;52.998;5.862;2024-01-30T10:34:10;9.40;99.90
54431;DHT22;40342;52.998;5.862;2024-01-30T10:36:40;9.40;99.90
54431;DHT22;40342;52.998;5.862;2024-01-30T10:39:08;9.30;99.90
54431;DHT22;40342;52.998;5.862;2024-01-30T10:41:42;9.30;99.90
54431;DHT22;40342;52.998;5.862;2024-01-30T10:44:09;9.30;99.90
54431;DHT22;40342;52.998;5.862;2024-01-30T10:46:37;9.20;99.90
54431;DHT22;40342;52.998;5.862;2024-01-30T10:49:04;9.30;99.90
54431;DHT22;40342;52.998;5.862;2024-01-30T10:51:31;9.40;99.90
54431;DHT22;40342;52.998;5.862;2024-01-30T10:53:57;9.40;99.90
54431;DHT22;40342;52.998;5.862;2024-01-30T10:56:24;9.40;99.90
54431;DHT22;40342;52.998;5.862;2024-01-30T10:58:51;9.50;99.90
54431;DHT22;40342;52.998;5.862;2024-01-30T11:01:21;9.50;99.90
54431;DHT22;40342;52.998;5.862;2024-01-30T11:03:54;9.40;99.90
54431;DHT22;40342;52.998;5.862;2024-01-30T11:06:25;9.40;99.90
54431;DHT22;40342;52.998;5.862;2024-01-30T11:09:04;9.30;99.90
54431;DHT22;40342;52.998;5.862;2024-01-30T11:11:48;9.30;99.90
54431;DHT22;40342;52.998;5.862;2024-01-30T11:14:14;9.20;99.90
54431;DHT22;40342;52.998;5.862;2024-01-30T11:16:40;9.20;99.90
54431;DHT22;40342;52.998;5.862;2024-01-30T11:19:10;9.10;99.90
54431;DHT22;40342;52.998;5.862;2024-01-30T11:21:42;9.00;99.90
54431;DHT22;40342;52.998;5.862;2024-01-30T11:24:08;9.00;99.90
54431;DHT22;40342;52.998;5.862;2024-01-30T11:26:34;8.90;99.90
54431;DHT22;40342;52.998;5.862;2024-01-30T11:29:03;8.80;99.90
54431;DHT22;40342;52.998;5.862;2024-01-30T11:31:30;8.80;99.90
54431;DHT22;40342;52.998;5.862;2024-01-30T11:33:56;8.80;99.90
54431;DHT22;40342;52.998;5.862;2024-01-30T11:36:25;8.80;99.90
54431;DHT22;40342;52.998;5.862;2024-01-30T11:38:52;8.70;99.90
54431;DHT22;40342;52.998;5.862;2024-01-30T11:41:17;8.70;99.90
54431;DHT22;40342;52.998;5.862;2024-01-30T11:43:51;8.70;99.90
54431;DHT22;40342;52.998;5.862;2024-01-30T11:46:17;8.70;99.90
54431;DHT22;40342;52.998;5.862;2024-01-30T11:48:43;8.70;99.90
54431;DHT22;40342;52.998;5.862;2024-01-30T11:51:08;8.60;99.90
54431;DHT22;40342;52.998;5.862;2024-01-30T11:53:34;8.60;99.90
54431;DHT22;40342;52.998;5.862;2024-01-30T11:55:59;8.60;99.90
54431;DHT22;40342;52.998;5.862;2024-01-30T11:58:25;8.50;99.90
54431;DHT22;40342;52.998;5.862;2024-01-30T12:00:55;8.50;99.90
54431;DHT22;40342;52.998;5.862;2024-01-30T12:03:21;8.50;99.90
54431;DHT22;40342;52.998;5.862;2024-01-30T12:05:55;8.50;99.90
54431;DHT22;40342;52.998;5.862;2024-01-30T12:08:20;8.60;99.90
54431;DHT22;40342;52.998;5.862;2024-01-30T12:10:46;8.50;99.90
54431;DHT22;40342;52.998;5.862;2024-01-30T12:13:20;8.50;99.90
54431;DHT22;40342;52.998;5.862;2024-01-30T12:15:45;8.60;99.90
54431;DHT22;40342;52.998;5.862;2024-01-30T12:18:11;8.60;99.90
54431;DHT22;40342;52.998;5.862;2024-01-30T12:20:37;8.60;99.90
54431;DHT22;40342;52.998;5.862;2024-01-30T12:23:02;8.50;99.90
54431;DHT22;40342;52.998;5.862;2024-01-30T12:25:28;8.50;99.90
54431;DHT22;40342;52.998;5.862;2024-01-30T12:27:54;8.50;99.90
54431;DHT22;40342;52.998;5.862;2024-01-30T12:30:21;8.50;99.90
54431;DHT22;40342;52.998;5.862;2024-01-30T12:32:49;8.60;99.90
54431;DHT22;40342;52.998;5.862;2024-01-30T12:35:19;8.60;99.90
54431;DHT22;40342;52.998;5.862;2024-01-30T12:37:46;8.60;99.90
54431;DHT22;40342;52.998;5.862;2024-01-30T12:40:14;8.60;99.90
54431;DHT22;40342;52.998;5.862;2024-01-30T12:42:46;8.60;99.90
54431;DHT22;40342;52.998;5.862;2024-01-30T12:45:14;8.50;99.90
54431;DHT22;40342;52.998;5.862;2024-01-30T12:47:41;8.60;99.90
54431;DHT22;40342;52.998;5.862;2024-01-30T12:50:07;8.50;99.90
54431;DHT22;40342;52.998;5.862;2024-01-30T12:52:35;8.40;99.90
54431;DHT22;40342;52.998;5.862;2024-01-30T12:55:01;8.40;99.90
54431;DHT22;40342;52.998;5.862;2024-01-30T12:57:26;8.40;99.90
54431;DHT22;40342;52.998;5.862;2024-01-30T12:59:52;8.40;99.90
54431;DHT22;40342;52.998;5.862;2024-01-30T13:02:17;8.40;99.90
54431;DHT22;40342;52.998;5.862;2024-01-30T13:04:43;8.40;99.90
54431;DHT22;40342;52.998;5.862;2024-01-30T13:07:09;8.30;99.90
54431;DHT22;40342;52.998;5.862;2024-01-30T13:09:35;8.20;99.90
54431;DHT22;40342;52.998;5.862;2024-01-30T13:12:00;8.20;99.90
54431;DHT22;40342;52.998;5.862;2024-01-30T13:14:26;8.10;99.90
54431;DHT22;40342;52.998;5.862;2024-01-30T13:16:52;8.10;99.90
54431;DHT22;40342;52.998;5.862;2024-01-30T13:19:18;8.10;99.90
54431;DHT22;40342;52.998;5.862;2024-01-30T13:21:44;8.00;99.90
54431;DHT22;40342;52.998;5.862;2024-01-30T13:24:09;8.00;99.90
54431;DHT22;40342;52.998;5.862;2024-01-30T13:26:35;8.00;99.90
54431;DHT22;40342;52.998;5.862;2024-01-30T13:29:01;8.00;99.90
54431;DHT22;40342;52.998;5.862;2024-01-30T13:31:27;7.90;99.90
54431;DHT22;40342;52.998;5.862;2024-01-30T13:33:53;7.90;99.90
54431;DHT22;40342;52.998;5.862;2024-01-30T13:36:19;7.90;99.90
54431;DHT22;40342;52.998;5.862;2024-01-30T13:38:46;7.90;99.90
54431;DHT22;40342;52.998;5.862;2024-01-30T13:41:12;7.80;99.90
54431;DHT22;40342;52.998;5.862;2024-01-30T13:43:37;7.90;99.90
54431;DHT22;40342;52.998;5.862;2024-01-30T13:46:03;7.80;99.90
54431;DHT22;40342;52.998;5.862;2024-01-30T13:48:29;7.80;99.90
54431;DHT22;40342;52.998;5.862;2024-01-30T13:50:55;7.80;99.90
54431;DHT22;40342;52.998;5.862;2024-01-30T13:53:21;7.80;99.90
54431;DHT22;40342;52.998;5.862;2024-01-30T13:55:46;7.70;99.90
54431;DHT22;40342;52.998;5.862;2024-01-30T13:58:12;7.70;99.90
54431;DHT22;40342;52.998;5.862;2024-01-30T14:00:38;7.70;99.90
54431;DHT22;40342;52.998;5.862;2024-01-30T14:03:04;7.60;99.90
54431;DHT22;40342;52.998;5.862;2024-01-30T14:05:30;7.60;99.90
54431;DHT22;40342;52.998;5.862;2024-01-30T14:07:56;7.60;99.90
54431;DHT22;40342;52.998;5.862;2024-01-30T14:10:23;7.60;99.90
54431;DHT22;40342;52.998;5.862;2024-01-30T14:12:48;7.50;99.90
54431;DHT22;40342;52.998;5.862;2024-01-30T14:15:14;7.50;99.90
54431;DHT22;40342;52.998;5.862;2024-01-30T14:17:40;7.50;99.90
54431;DHT22;40342;52.998;5.862;2024-01-30T14:20:07;7.60;99.90
54431;DHT22;40342;52.998;5.862;2024-01-30T14:22:34;7.50;99.90
54431;DHT22;40342;52.998;5.862;2024-01-30T14:25:00;7.50;99.90
54431;DHT22;40342;52.998;5.862;2024-01-30T14:27:27;7.50;99.90
54431;DHT22;40342;52.998;5.862;2024-01-30T14:29:52;7.50;99.90
54431;DHT22;40342;52.998;5.862;2024-01-30T14:32:18;7.50;99.90
54431;DHT22;40342;52.998;5.862;2024-01-30T14:34:44;7.40;99.90
54431;DHT22;40342;52.998;5.862;2024-01-30T14:37:10;7.40;99.90
54431;DHT22;40342;52.998;5.862;2024-01-30T14:39:35;7.40;99.90
54431;DHT22;40342;52.998;5.862;2024-01-30T14:42:03;7.40;99.90
54431;DHT22;40342;52.998;5.862;2024-01-30T14:44:29;7.40;99.90
54431;DHT22;40342;52.998;5.862;2024-01-30T14:46:56;7.30;99.90
54431;DHT22;40342;52.998;5.862;2024-01-30T14:49:21;7.30;99.90
54431;DHT22;40342;52.998;5.862;2024-01-30T14:51:47;7.30;99.90
54431;DHT22;40342;52.998;5.862;2024-01-30T14:54:13;7.30;99.90
54431;DHT22;40342;52.998;5.862;2024-01-30T14:56:38;7.20;99.90
54431;DHT22;40342;52.998;5.862;2024-01-30T14:59:04;7.20;99.90
54431;DHT22;40342;52.998;5.862;2024-01-30T15:01:30;7.30;99.90
54431;DHT22;40342;52.998;5.862;2024-01-30T15:03:55;7.20;99.90
54431;DHT22;40342;52.998;5.862;2024-01-30T15:06:21;7.20;99.90
54431;DHT22;40342;52.998;5.862;2024-01-30T15:08:50;7.20;99.90
54431;DHT22;40342;52.998;5.862;2024-01-30T15:11:15;7.20;99.90
54431;DHT22;40342;52.998;5.862;2024-01-30T15:13:41;7.20;99.90
54431;DHT22;40342;52.998;5.862;2024-01-30T15:16:07;7.20;99.90
54431;DHT22;40342;52.998;5.862;2024-01-30T15:18:33;7.20;99.90
54431;DHT22;40342;52.998;5.862;2024-01-30T15:20:59;7.20;99.90
54431;DHT22;40342;52.998;5.862;2024-01-30T15:23:24;7.20;99.90
54431;DHT22;40342;52.998;5.862;2024-01-30T15:25:50;7.30;99.90
54431;DHT22;40342;52.998;5.862;2024-01-30T15:28:16;7.30;99.90
54431;DHT22;40342;52.998;5.862;2024-01-30T15:30:42;7.30;99.90
54431;DHT22;40342;52.998;5.862;2024-01-30T15:33:09;7.40;99.90
54431;DHT22;40342;52.998;5.862;2024-01-30T15:35:35;7.50;99.90
54431;DHT22;40342;52.998;5.862;2024-01-30T15:38:01;7.50;99.90
54431;DHT22;40342;52.998;5.862;2024-01-30T15:40:26;7.50;99.90